Time;durP1;ratioP1;P1;durP2;ratioP2;P2;SDS_P1;SDS_P2;PMS_P1;PMS_P2;Temp;Humidity;BMP_temperature;BMP_pressure;BME280_temperature;BME280_humidity;BME280_pressure;Samples;Min_cycle;Max_cycle;Signal;HPM_P1;HPM_P2
2023/10/05 00:01:27;;;;;;;3.75;1.80;;;12.20;99.90;;;;;;5043661;28;20067;-76
2023/10/05 00:03:54;;;;;;;6.57;1.80;;;12.20;99.90;;;;;;5022372;28;20045;-76
2023/10/05 00:06:25;;;;;;;3.72;1.90;;;12.20;99.90;;;;;;5043566;28;20045;-76
2023/10/05 00:08:56;;;;;;;2.80;1.63;;;12.10;99.90;;;;;;5049738;28;20047;-76
2023/10/05 00:11:29;;;;;;;2.72;1.63;;;12.10;99.90;;;;;;5051115;28;20044;-76
2023/10/05 00:13:58;;;;;;;5.43;1.92;;;12.10;99.90;;;;;;5041592;28;20435;-76
2023/10/05 00:16:38;;;;;;;3.53;1.70;;;12.20;99.90;;;;;;5045757;28;20079;-76
2023/10/05 00:19:12;;;;;;;3.47;1.87;;;12.10;99.90;;;;;;5040238;28;20053;-76
2023/10/05 00:21:58;;;;;;;4.03;2.05;;;12.10;99.90;;;;;;5046196;28;20048;-76
2023/10/05 00:24:31;;;;;;;3.00;1.90;;;12.10;99.90;;;;;;5047333;28;20063;-76
2023/10/05 00:26:59;;;;;;;3.08;1.60;;;12.10;99.90;;;;;;5044325;28;20061;-76
2023/10/05 00:29:28;;;;;;;2.83;2.03;;;12.00;99.90;;;;;;5041796;28;20053;-76
2023/10/05 00:31:59;;;;;;;5.18;1.83;;;12.00;99.90;;;;;;5045538;28;20050;-76
2023/10/05 00:34:27;;;;;;;8.25;1.63;;;12.00;99.90;;;;;;5037361;28;20136;-76
2023/10/05 00:36:59;;;;;;;6.95;2.00;;;11.90;99.90;;;;;;5047491;28;20053;-76
2023/10/05 00:39:30;;;;;;;3.25;1.40;;;11.90;99.90;;;;;;5048020;28;20052;-76
2023/10/05 00:44:31;;;;;;;3.13;1.67;;;11.90;99.90;;;;;;5038504;28;20087;-76
2023/10/05 00:47:01;;;;;;;3.83;1.83;;;11.90;99.90;;;;;;5043893;28;20068;-76
2023/10/05 00:49:30;;;;;;;6.22;1.83;;;11.80;99.90;;;;;;5036672;28;20067;-76
2023/10/05 00:52:15;;;;;;;2.50;1.80;;;11.80;99.90;;;;;;5045227;28;20096;-76
2023/10/05 00:54:48;;;;;;;4.47;1.80;;;11.90;99.90;;;;;;5043673;28;20049;-76
2023/10/05 00:57:19;;;;;;;3.20;1.80;;;11.80;99.90;;;;;;5045665;28;20045;-76
2023/10/05 00:59:49;;;;;;;2.88;1.70;;;11.80;99.90;;;;;;5037229;28;20049;-76
2023/10/05 01:02:20;;;;;;;3.67;1.67;;;11.80;99.90;;;;;;5044069;28;20042;-76
2023/10/05 01:04:56;;;;;;;5.32;2.17;;;11.70;99.90;;;;;;5048080;28;20036;-76
2023/10/05 01:10:22;;;;;;;3.85;1.90;;;11.70;99.90;;;;;;5044700;28;20041;-76
2023/10/05 01:12:45;;;;;;;2.58;1.77;;;11.70;99.90;;;;;;5043130;28;20037;-76
2023/10/05 01:15:21;;;;;;;4.07;1.73;;;11.70;99.90;;;;;;5042229;28;20049;-76
2023/10/05 01:17:51;;;;;;;2.42;1.73;;;11.60;99.90;;;;;;5039436;28;20138;-76
2023/10/05 01:22:47;;;;;;;3.55;1.73;;;11.60;99.90;;;;;;5044023;28;20045;-76
2023/10/05 01:25:14;;;;;;;4.00;1.80;;;11.60;99.90;;;;;;5035836;28;20087;-76
2023/10/05 01:27:45;;;;;;;6.07;1.80;;;11.60;99.90;;;;;;5039044;28;20042;-76
2023/10/05 01:30:12;;;;;;;3.65;1.80;;;11.50;99.90;;;;;;5041562;28;20041;-76
2023/10/05 01:32:43;;;;;;;3.22;1.40;;;11.50;99.90;;;;;;5043622;28;20056;-76
2023/10/05 01:35:14;;;;;;;3.92;1.65;;;11.50;99.90;;;;;;5047228;28;20067;-76
2023/10/05 01:37:46;;;;;;;2.42;1.52;;;11.50;99.90;;;;;;5043814;28;20052;-76
2023/10/05 01:42:51;;;;;;;3.20;1.73;;;11.40;99.90;;;;;;5041710;28;20046;-76
2023/10/05 01:45:24;;;;;;;3.95;2.00;;;11.40;99.90;;;;;;5041438;28;20125;-76
2023/10/05 01:47:52;;;;;;;6.95;1.73;;;11.40;99.90;;;;;;5047192;28;20593;-76
2023/10/05 01:50:20;;;;;;;4.43;1.70;;;11.40;99.90;;;;;;5049260;28;20042;-76
2023/10/05 01:52:55;;;;;;;3.05;2.03;;;11.40;99.90;;;;;;5041662;28;20045;-76
2023/10/05 01:55:27;;;;;;;6.20;2.05;;;11.40;99.90;;;;;;5045293;28;20057;-76
2023/10/05 01:57:54;;;;;;;3.90;1.88;;;11.30;99.90;;;;;;5036805;28;20095;-76
2023/10/05 02:00:23;;;;;;;2.97;1.75;;;11.30;99.90;;;;;;5040633;28;20505;-76
2023/10/05 02:02:52;;;;;;;4.13;1.83;;;11.30;99.90;;;;;;5046562;28;20045;-76
2023/10/05 02:05:20;;;;;;;5.18;1.83;;;11.30;99.90;;;;;;5038950;28;20387;-76
2023/10/05 02:07:49;;;;;;;4.80;1.67;;;11.30;99.90;;;;;;5044584;28;20488;-76
2023/10/05 02:10:20;;;;;;;3.25;2.10;;;11.20;99.90;;;;;;5029648;28;20049;-76
2023/10/05 02:12:54;;;;;;;2.88;1.92;;;11.30;99.90;;;;;;5044128;28;20413;-76
2023/10/05 02:15:28;;;;;;;3.53;1.70;;;11.20;99.90;;;;;;5045665;28;20042;-76
2023/10/05 02:18:07;;;;;;;3.72;1.63;;;11.20;99.90;;;;;;5050104;28;20045;-76
2023/10/05 02:23:03;;;;;;;3.20;1.80;;;11.20;99.90;;;;;;5043337;28;20120;-76
2023/10/05 02:25:36;;;;;;;4.35;1.88;;;11.20;99.90;;;;;;5050207;28;20109;-76
2023/10/05 02:28:03;;;;;;;2.90;1.50;;;11.30;99.90;;;;;;5038725;28;20056;-76
2023/10/05 02:30:31;;;;;;;3.22;1.73;;;11.30;99.90;;;;;;5036751;28;20424;-76
2023/10/05 02:32:59;;;;;;;4.97;1.75;;;11.30;99.90;;;;;;5049166;28;20459;-76
2023/10/05 02:35:33;;;;;;;4.57;1.88;;;11.30;99.90;;;;;;5050786;28;20725;-76
2023/10/05 02:38:07;;;;;;;2.80;2.03;;;11.30;99.90;;;;;;5041853;28;20124;-76
2023/10/05 02:40:45;;;;;;;3.58;1.52;;;11.30;99.90;;;;;;5049150;28;20090;-76
2023/10/05 02:43:15;;;;;;;3.17;2.05;;;11.30;99.90;;;;;;5040189;28;20045;-76
2023/10/05 02:45:42;;;;;;;3.65;1.83;;;11.30;99.90;;;;;;5053140;28;20041;-76
2023/10/05 02:48:10;;;;;;;4.68;1.60;;;11.40;99.90;;;;;;5030079;28;20079;-76
2023/10/05 02:50:40;;;;;;;5.95;1.90;;;11.40;99.90;;;;;;5044557;28;20484;-76
2023/10/05 02:53:06;;;;;;;3.72;2.00;;;11.40;99.90;;;;;;5040617;28;20045;-76
2023/10/05 02:55:36;;;;;;;6.55;1.80;;;11.40;99.90;;;;;;5048189;28;20462;-76
2023/10/05 02:58:06;;;;;;;3.72;1.95;;;11.40;99.90;;;;;;5037332;28;20045;-76
2023/10/05 03:00:33;;;;;;;4.75;1.83;;;11.40;99.90;;;;;;5043270;28;20056;-76
2023/10/05 03:03:03;;;;;;;5.43;2.20;;;11.40;99.90;;;;;;5046739;28;20050;-76
2023/10/05 03:05:35;;;;;;;4.28;2.10;;;11.40;99.90;;;;;;5048553;28;20084;-76
2023/10/05 03:08:03;;;;;;;3.38;1.83;;;11.40;99.90;;;;;;5039642;28;20049;-76
2023/10/05 03:10:30;;;;;;;4.07;1.80;;;11.40;99.90;;;;;;5047245;28;20123;-76
2023/10/05 03:12:58;;;;;;;4.10;2.28;;;11.40;99.90;;;;;;5042541;28;20469;-76
2023/10/05 03:15:27;;;;;;;3.53;2.00;;;11.40;99.90;;;;;;5050720;28;20053;-76
2023/10/05 03:17:57;;;;;;;3.83;1.60;;;11.40;99.90;;;;;;5044622;28;20049;-76
2023/10/05 03:20:24;;;;;;;5.20;1.83;;;11.40;99.90;;;;;;5047752;28;20053;-76
2023/10/05 03:22:55;;;;;;;3.28;1.80;;;11.40;99.90;;;;;;5038879;28;20041;-76
2023/10/05 03:25:23;;;;;;;3.75;1.67;;;11.40;99.90;;;;;;5045394;28;20060;-76
2023/10/05 03:27:50;;;;;;;5.03;2.03;;;11.40;99.90;;;;;;5047041;28;20103;-76
2023/10/05 03:30:17;;;;;;;5.57;2.00;;;11.40;99.90;;;;;;5049324;28;20046;-76
2023/10/05 03:32:48;;;;;;;3.33;2.13;;;11.40;99.90;;;;;;5045306;28;20045;-76
2023/10/05 03:35:22;;;;;;;4.22;2.10;;;11.40;99.90;;;;;;5045038;28;20049;-76
2023/10/05 03:37:49;;;;;;;2.78;1.75;;;11.40;99.90;;;;;;5040160;28;20102;-76
2023/10/05 03:40:24;;;;;;;4.15;1.88;;;11.40;99.90;;;;;;5043819;28;20102;-76
2023/10/05 03:42:57;;;;;;;4.57;1.92;;;11.40;99.90;;;;;;5054014;28;20095;-76
2023/10/05 03:45:24;;;;;;;2.78;1.55;;;11.40;99.90;;;;;;5047236;28;20239;-76
2023/10/05 03:47:53;;;;;;;5.15;2.08;;;11.40;99.90;;;;;;5043160;28;20095;-76
2023/10/05 03:50:20;;;;;;;2.70;2.00;;;11.40;99.90;;;;;;5044755;28;20045;-76
2023/10/05 03:52:47;;;;;;;4.25;2.13;;;11.40;99.90;;;;;;5039873;28;20128;-76
2023/10/05 03:55:18;;;;;;;3.70;1.95;;;11.40;99.90;;;;;;5033223;28;20114;-76
2023/10/05 03:57:46;;;;;;;3.67;2.10;;;11.40;99.90;;;;;;5052063;28;20044;-76
2023/10/05 04:00:23;;;;;;;6.05;2.55;;;11.50;99.90;;;;;;5037209;28;20045;-76
2023/10/05 04:02:54;;;;;;;3.47;1.90;;;11.50;99.90;;;;;;5044854;28;20053;-76
2023/10/05 04:05:22;;;;;;;5.20;2.10;;;11.50;99.90;;;;;;5026389;28;20095;-76
2023/10/05 04:07:54;;;;;;;4.57;2.33;;;11.50;99.90;;;;;;5037945;28;20077;-76
2023/10/05 04:10:23;;;;;;;5.45;2.42;;;11.50;99.90;;;;;;5048769;28;20044;-76
2023/10/05 04:12:51;;;;;;;3.30;2.08;;;11.50;99.90;;;;;;5050716;28;20052;-76
2023/10/05 04:15:20;;;;;;;3.38;2.10;;;11.50;99.90;;;;;;5036551;28;20158;-76
2023/10/05 04:17:49;;;;;;;3.58;2.10;;;11.50;99.90;;;;;;5044837;28;20083;-76
2023/10/05 04:20:27;;;;;;;2.55;1.95;;;11.50;99.90;;;;;;5041937;28;20041;-76
2023/10/05 04:22:57;;;;;;;3.90;1.92;;;11.50;99.90;;;;;;5037908;28;20102;-76
2023/10/05 04:25:24;;;;;;;4.57;1.98;;;11.40;99.90;;;;;;5050301;28;20048;-76
2023/10/05 04:27:52;;;;;;;4.03;2.13;;;11.40;99.90;;;;;;5049398;28;20386;-76
2023/10/05 04:30:23;;;;;;;6.45;2.28;;;11.40;99.90;;;;;;5042115;28;20081;-76
2023/10/05 04:32:50;;;;;;;3.15;1.98;;;11.40;99.90;;;;;;5042960;28;20041;-76
2023/10/05 04:35:22;;;;;;;4.63;2.00;;;11.30;99.90;;;;;;5041055;28;20132;-76
2023/10/05 04:37:50;;;;;;;5.13;1.98;;;11.30;99.90;;;;;;5036984;28;20076;-76
2023/10/05 04:40:18;;;;;;;3.65;2.17;;;11.30;99.90;;;;;;5047469;28;20045;-76
2023/10/05 04:42:45;;;;;;;3.55;1.90;;;11.20;99.90;;;;;;5031093;28;20139;-75
2023/10/05 04:45:14;;;;;;;6.35;2.00;;;11.20;99.90;;;;;;5040858;28;20452;-78
2023/10/05 04:47:41;;;;;;;5.90;2.75;;;11.10;99.90;;;;;;5043314;28;20109;-76
2023/10/05 04:50:13;;;;;;;5.65;2.00;;;11.10;99.90;;;;;;5038718;28;20128;-76
2023/10/05 04:52:40;;;;;;;5.63;2.40;;;11.10;99.90;;;;;;5039010;28;20049;-76
2023/10/05 04:55:31;;;;;;;5.38;2.00;;;11.10;99.90;;;;;;5046319;28;20052;-76
2023/10/05 04:58:53;;;;;;;3.55;2.10;;;11.10;99.90;;;;;;5046747;28;20044;-76
2023/10/05 05:06:14;;;;;;;4.20;1.77;;;11.10;99.90;;;;;;5034682;28;20037;-76
2023/10/05 05:08:40;;;;;;;4.80;2.55;;;11.10;99.90;;;;;;5050729;28;20564;-76
2023/10/05 05:11:18;;;;;;;5.57;2.20;;;11.00;99.90;;;;;;5044412;28;20042;-76
2023/10/05 05:13:46;;;;;;;3.63;1.98;;;11.00;99.90;;;;;;5047590;28;20041;-76
2023/10/05 05:16:15;;;;;;;5.10;2.58;;;11.00;99.90;;;;;;5019911;28;20091;-76
2023/10/05 05:18:42;;;;;;;3.10;2.00;;;11.00;99.90;;;;;;5045549;28;20136;-76
2023/10/05 05:21:12;;;;;;;5.55;2.17;;;11.00;99.90;;;;;;5033723;28;20041;-76
2023/10/05 05:23:43;;;;;;;3.90;2.20;;;11.00;99.90;;;;;;5050823;28;20131;-76
2023/10/05 05:26:11;;;;;;;4.03;2.30;;;11.10;99.90;;;;;;5043202;28;20574;-75
2023/10/05 05:28:38;;;;;;;8.00;2.30;;;11.10;99.90;;;;;;5046540;28;20056;-76
2023/10/05 05:31:11;;;;;;;7.55;2.22;;;11.00;99.90;;;;;;5036277;28;20124;-76
2023/10/05 05:33:38;;;;;;;5.22;2.15;;;11.10;99.90;;;;;;5044681;28;20097;-77
2023/10/05 05:36:10;;;;;;;4.55;2.58;;;11.10;99.90;;;;;;5034484;28;20048;-76
2023/10/05 05:38:41;;;;;;;4.72;2.03;;;11.10;99.90;;;;;;5050209;28;20049;-76
2023/10/05 05:41:16;;;;;;;3.35;1.60;;;11.10;99.90;;;;;;5049166;28;20133;-76
2023/10/05 05:43:43;;;;;;;3.72;1.90;;;11.10;99.90;;;;;;5049472;28;20049;-76
2023/10/05 05:46:13;;;;;;;3.80;1.95;;;11.10;99.90;;;;;;5039259;28;20080;-76
2023/10/05 05:48:44;;;;;;;4.50;2.28;;;11.10;99.90;;;;;;5049605;28;20046;-76
2023/10/05 05:51:14;;;;;;;4.57;2.05;;;11.10;99.90;;;;;;5038066;28;20099;-76
2023/10/05 05:53:43;;;;;;;5.90;2.08;;;11.10;99.90;;;;;;5052371;28;20051;-76
2023/10/05 05:56:16;;;;;;;6.50;2.35;;;11.10;99.90;;;;;;5044225;28;20046;-76
2023/10/05 05:58:50;;;;;;;4.10;2.25;;;11.10;99.90;;;;;;5030911;28;20065;-76
2023/10/05 06:01:17;;;;;;;4.47;2.25;;;11.20;99.90;;;;;;5038776;28;20136;-76
2023/10/05 06:03:44;;;;;;;4.40;2.13;;;11.20;99.90;;;;;;5049873;28;20049;-76
2023/10/05 06:06:11;;;;;;;4.28;1.83;;;11.20;99.90;;;;;;5051231;28;20054;-76
2023/10/05 06:08:40;;;;;;;5.45;2.38;;;11.20;99.90;;;;;;5050833;28;20049;-76
2023/10/05 06:11:08;;;;;;;4.70;2.05;;;11.20;99.90;;;;;;5046291;28;20045;-76
2023/10/05 06:13:38;;;;;;;6.38;2.10;;;11.30;99.90;;;;;;5047265;28;20068;-76
2023/10/05 06:16:06;;;;;;;4.50;2.25;;;11.30;99.90;;;;;;5027344;28;20072;-76
2023/10/05 06:18:33;;;;;;;3.60;2.10;;;11.30;99.90;;;;;;5051330;28;20048;-76
2023/10/05 06:21:00;;;;;;;3.65;2.30;;;11.30;99.90;;;;;;5053923;28;20048;-76
2023/10/05 06:23:26;;;;;;;3.20;1.90;;;11.40;99.90;;;;;;5038617;28;20072;-76
2023/10/05 06:25:53;;;;;;;9.15;2.67;;;11.40;99.90;;;;;;5045497;28;20051;-76
2023/10/05 06:28:20;;;;;;;7.60;2.47;;;11.50;99.90;;;;;;5043355;28;20049;-76
2023/10/05 06:30:49;;;;;;;5.82;2.42;;;11.50;99.90;;;;;;5040879;28;20504;-76
2023/10/05 06:33:16;;;;;;;6.95;2.15;;;11.50;99.90;;;;;;5052532;28;20045;-76
2023/10/05 06:35:44;;;;;;;5.18;3.05;;;11.50;99.90;;;;;;5035078;28;20133;-76
2023/10/05 06:38:10;;;;;;;7.88;2.67;;;11.60;99.90;;;;;;5045564;28;20483;-76
2023/10/05 06:40:37;;;;;;;6.43;2.40;;;11.60;99.90;;;;;;5044674;28;20509;-76
2023/10/05 06:43:05;;;;;;;7.65;2.20;;;11.70;99.90;;;;;;5045983;28;20424;-76
2023/10/05 06:45:33;;;;;;;7.03;2.30;;;11.70;99.90;;;;;;5040219;28;20151;-76
2023/10/05 06:47:59;;;;;;;6.00;2.20;;;11.80;99.90;;;;;;5053010;28;20052;-77
2023/10/05 06:50:26;;;;;;;5.05;2.28;;;11.80;99.90;;;;;;5030595;28;20499;-76
2023/10/05 06:52:53;;;;;;;5.15;2.40;;;11.90;99.90;;;;;;5048835;28;20037;-76
2023/10/05 06:55:21;;;;;;;20.55;3.00;;;12.00;99.90;;;;;;5041522;28;20401;-76
2023/10/05 06:57:50;;;;;;;28.08;3.30;;;12.00;99.90;;;;;;5047381;28;20052;-76
2023/10/05 07:00:22;;;;;;;30.30;3.83;;;12.10;99.90;;;;;;5036891;28;20053;-76
2023/10/05 07:02:58;;;;;;;10.55;2.70;;;12.20;99.90;;;;;;5035998;28;20057;-76
2023/10/05 07:05:28;;;;;;;12.77;3.05;;;12.20;99.90;;;;;;5047160;28;20044;-76
2023/10/05 07:07:55;;;;;;;8.23;2.93;;;12.30;99.90;;;;;;5047826;28;20048;-76
2023/10/05 07:10:22;;;;;;;8.93;2.47;;;12.30;99.90;;;;;;5040459;28;20107;-76
2023/10/05 07:12:48;;;;;;;12.05;3.10;;;12.40;99.90;;;;;;5050289;28;20052;-76
2023/10/05 07:15:21;;;;;;;5.85;2.38;;;12.50;99.90;;;;;;5039884;28;20041;-76
2023/10/05 07:17:49;;;;;;;9.52;2.63;;;12.50;99.90;;;;;;5035107;28;20050;-76
2023/10/05 07:20:17;;;;;;;7.05;2.50;;;12.60;99.90;;;;;;5046403;28;20050;-76
2023/10/05 07:22:46;;;;;;;6.90;2.78;;;12.70;99.90;;;;;;5047244;28;20556;-76
2023/10/05 07:25:19;;;;;;;4.38;2.40;;;12.70;99.90;;;;;;5041530;28;20659;-76
2023/10/05 07:27:47;;;;;;;5.50;2.53;;;12.80;99.90;;;;;;5045411;28;20563;-76
2023/10/05 07:30:15;;;;;;;8.00;2.60;;;12.90;99.90;;;;;;5049475;28;20040;-75
2023/10/05 07:32:42;;;;;;;6.38;3.05;;;13.00;99.90;;;;;;5049510;28;20098;-76
2023/10/05 07:35:15;;;;;;;6.03;2.75;;;13.10;99.90;;;;;;5044445;28;20040;-76
2023/10/05 07:37:42;;;;;;;6.60;2.80;;;13.20;99.90;;;;;;5045955;28;20045;-76
2023/10/05 07:40:13;;;;;;;10.45;3.20;;;13.20;99.90;;;;;;5040697;28;20068;-76
2023/10/05 07:42:41;;;;;;;9.38;4.43;;;13.30;99.90;;;;;;5044101;28;20053;-76
2023/10/05 07:45:09;;;;;;;10.68;5.28;;;13.40;99.90;;;;;;5049070;28;20048;-76
2023/10/05 07:47:43;;;;;;;15.63;5.28;;;13.40;99.90;;;;;;5046299;28;20073;-76
2023/10/05 07:50:11;;;;;;;26.25;8.13;;;13.40;99.90;;;;;;5047705;28;20051;-77
2023/10/05 07:52:40;;;;;;;16.00;5.70;;;13.50;99.90;;;;;;5043655;28;20132;-76
2023/10/05 07:55:08;;;;;;;13.82;4.88;;;13.50;99.90;;;;;;5038754;28;20045;-76
2023/10/05 07:57:35;;;;;;;12.38;5.57;;;13.50;99.90;;;;;;5042346;28;20077;-76
2023/10/05 08:00:06;;;;;;;15.43;5.05;;;13.60;99.90;;;;;;5053783;28;20044;-76
2023/10/05 08:02:32;;;;;;;15.50;5.70;;;13.60;99.90;;;;;;5044158;28;20111;-76
2023/10/05 08:04:59;;;;;;;11.45;5.55;;;13.70;99.90;;;;;;5047723;28;20045;-79
2023/10/05 08:07:26;;;;;;;14.18;5.65;;;13.70;99.90;;;;;;5041957;28;20061;-76
2023/10/05 08:09:55;;;;;;;16.48;6.97;;;13.80;99.90;;;;;;5039416;28;20077;-76
2023/10/05 08:12:21;;;;;;;16.05;7.45;;;13.80;99.90;;;;;;5047461;28;20044;-76
2023/10/05 08:14:48;;;;;;;13.25;6.30;;;13.80;99.90;;;;;;5052215;28;20156;-76
2023/10/05 08:17:17;;;;;;;15.00;6.95;;;13.80;99.90;;;;;;5043808;28;20099;-76
2023/10/05 08:19:44;;;;;;;11.85;7.28;;;13.90;99.90;;;;;;5045469;28;20049;-76
2023/10/05 08:22:11;;;;;;;16.65;7.13;;;13.90;99.90;;;;;;5043587;28;20050;-77
2023/10/05 08:24:38;;;;;;;11.15;6.10;;;14.00;99.90;;;;;;5037175;28;20123;-76
2023/10/05 08:27:06;;;;;;;9.85;5.60;;;14.10;99.90;;;;;;5048243;28;20075;-76
2023/10/05 08:29:34;;;;;;;9.35;5.70;;;14.20;99.90;;;;;;5048039;28;20051;-76
2023/10/05 08:32:01;;;;;;;12.45;5.75;;;14.20;99.90;;;;;;5048348;28;20458;-76
2023/10/05 08:34:32;;;;;;;9.55;6.15;;;14.30;99.90;;;;;;5041240;28;20068;-77
2023/10/05 08:37:01;;;;;;;10.90;5.65;;;14.40;99.90;;;;;;5044809;28;20044;-76
2023/10/05 08:39:35;;;;;;;15.52;6.50;;;14.40;99.90;;;;;;5034882;28;20432;-76
2023/10/05 08:42:06;;;;;;;11.52;5.55;;;14.40;99.90;;;;;;5050716;28;20048;-76
2023/10/05 08:44:38;;;;;;;14.43;6.28;;;14.50;99.90;;;;;;5047011;28;20055;-76
2023/10/05 08:47:10;;;;;;;14.77;6.18;;;14.60;99.90;;;;;;5025406;28;20048;-76
2023/10/05 08:49:38;;;;;;;12.45;5.72;;;14.60;99.90;;;;;;5043466;28;20076;-77
2023/10/05 08:52:13;;;;;;;10.50;5.43;;;14.60;99.90;;;;;;5038291;28;20052;-76
2023/10/05 08:54:41;;;;;;;10.93;5.78;;;14.70;99.90;;;;;;5043373;28;20044;-76
2023/10/05 08:57:10;;;;;;;11.27;5.72;;;14.80;99.90;;;;;;5050666;28;20624;-76
2023/10/05 08:59:39;;;;;;;11.63;6.07;;;14.80;99.90;;;;;;5047022;28;20081;-76
2023/10/05 09:02:08;;;;;;;16.17;5.63;;;14.80;99.90;;;;;;5042063;28;20056;-76
2023/10/05 09:04:44;;;;;;;9.75;5.78;;;14.90;99.90;;;;;;5042802;28;20107;-76
2023/10/05 09:07:26;;;;;;;8.23;4.75;;;14.90;99.90;;;;;;5044147;28;20037;-76
2023/10/05 09:09:56;;;;;;;9.38;5.78;;;14.90;99.90;;;;;;5045411;28;20067;-76
2023/10/05 09:12:37;;;;;;;10.23;6.13;;;14.90;99.90;;;;;;5046069;28;20429;-76
2023/10/05 09:15:27;;;;;;;15.50;7.00;;;15.00;99.90;;;;;;5048937;28;20075;-76
2023/10/05 09:20:38;;;;;;;9.13;5.80;;;15.20;99.90;;;;;;5044373;28;20049;-76
2023/10/05 09:23:07;;;;;;;14.55;6.60;;;15.20;99.90;;;;;;5037407;28;20484;-76
2023/10/05 09:25:39;;;;;;;10.88;6.30;;;15.30;99.90;;;;;;5046339;28;20448;-76
2023/10/05 09:28:15;;;;;;;14.40;5.88;;;15.40;99.90;;;;;;5043138;28;20103;-77
2023/10/05 09:30:56;;;;;;;11.75;5.60;;;15.40;99.90;;;;;;5044205;28;20049;-76
2023/10/05 09:33:26;;;;;;;9.77;5.60;;;15.60;99.90;;;;;;5037355;28;20046;-77
2023/10/05 09:36:06;;;;;;;10.82;5.40;;;15.70;99.90;;;;;;5027035;28;20108;-77
2023/10/05 09:38:40;;;;;;;9.20;5.10;;;15.80;99.90;;;;;;5041498;28;20049;-77
2023/10/05 09:41:08;;;;;;;8.68;4.60;;;15.80;99.90;;;;;;5049899;28;20052;-77
2023/10/05 09:43:38;;;;;;;11.90;5.30;;;16.00;99.90;;;;;;5043108;28;20080;-77
2023/10/05 09:46:09;;;;;;;;;;;16.00;99.90;;;;;;5045608;28;20045;-77
2023/10/05 09:48:38;;;;;;;6.22;4.28;;;16.00;99.90;;;;;;5036294;28;20295;-77
2023/10/05 09:51:13;;;;;;;9.52;5.50;;;15.90;99.90;;;;;;5043498;28;20041;-77
2023/10/05 09:53:43;;;;;;;9.45;4.90;;;15.80;99.90;;;;;;5049494;28;20052;-77
2023/10/05 09:56:14;;;;;;;11.35;5.35;;;15.80;99.90;;;;;;5042087;28;20416;-77
2023/10/05 09:58:52;;;;;;;7.05;4.40;;;15.70;99.90;;;;;;5044371;28;20460;-77
2023/10/05 10:01:21;;;;;;;7.32;4.32;;;15.70;99.90;;;;;;5041502;28;20049;-76
2023/10/05 10:03:53;;;;;;;12.32;5.25;;;15.60;99.90;;;;;;5044386;28;20413;-77
2023/10/05 10:06:28;;;;;;;8.68;4.40;;;15.60;99.90;;;;;;5043799;28;20099;-77
2023/10/05 10:09:07;;;;;;;9.63;4.70;;;15.60;99.90;;;;;;5029024;28;20045;-76
2023/10/05 10:11:35;;;;;;;10.40;4.90;;;15.60;99.90;;;;;;5042920;28;20045;-77
2023/10/05 10:14:08;;;;;;;8.63;4.65;;;15.60;99.90;;;;;;5046796;28;20501;-77
2023/10/05 10:16:41;;;;;;;8.88;4.47;;;15.60;99.90;;;;;;5038372;28;20688;-77
2023/10/05 10:19:20;;;;;;;10.52;4.90;;;15.50;99.90;;;;;;5025111;28;20516;-77
2023/10/05 10:21:57;;;;;;;8.98;5.70;;;15.50;99.90;;;;;;5045706;28;20447;-77
2023/10/05 10:24:28;;;;;;;10.93;5.50;;;15.40;99.90;;;;;;5045578;28;20059;-77
2023/10/05 10:27:11;;;;;;;9.77;5.50;;;15.40;99.90;;;;;;5047151;28;20077;-77
2023/10/05 10:29:56;;;;;;;9.55;5.85;;;15.40;99.90;;;;;;5048389;28;20045;-77
2023/10/05 10:32:31;;;;;;;10.43;5.00;;;15.40;99.90;;;;;;5044214;28;20041;-77
2023/10/05 10:35:26;;;;;;;9.55;5.35;;;15.40;99.90;;;;;;5049895;28;20103;-77
2023/10/05 10:37:59;;;;;;;9.52;5.07;;;15.40;99.90;;;;;;5052044;28;20049;-77
2023/10/05 10:40:27;;;;;;;13.60;5.90;;;15.40;99.90;;;;;;5047083;28;20476;-77
2023/10/05 10:45:40;;;;;;;8.30;4.43;;;15.60;99.90;;;;;;5045789;28;20083;-77
2023/10/05 10:48:14;;;;;;;11.02;4.90;;;15.60;99.90;;;;;;5040211;28;20041;-76
2023/10/05 10:50:41;;;;;;;8.48;4.97;;;15.70;99.90;;;;;;5034563;28;20085;-77
2023/10/05 10:53:16;;;;;;;9.00;4.82;;;15.70;99.90;;;;;;5053104;28;20060;-76
2023/10/05 10:56:04;;;;;;;9.95;4.18;;;15.80;99.90;;;;;;5044233;28;20049;-76
2023/10/05 10:58:33;;;;;;;9.27;3.83;;;15.90;99.90;;;;;;5044278;28;20057;-77
2023/10/05 11:01:13;;;;;;;9.75;3.65;;;16.00;99.90;;;;;;5044003;28;20061;-76
2023/10/05 11:03:41;;;;;;;8.55;4.65;;;16.20;99.90;;;;;;5042651;28;20521;-76
2023/10/05 11:06:09;;;;;;;13.80;4.13;;;16.30;99.90;;;;;;5052196;28;20068;-76
2023/10/05 11:08:45;;;;;;;6.88;3.80;;;16.40;99.90;;;;;;5048773;28;20115;-77
2023/10/05 11:11:15;;;;;;;8.48;3.85;;;16.50;99.90;;;;;;5045546;28;20072;-77
2023/10/05 11:13:49;;;;;;;9.02;3.72;;;16.50;99.90;;;;;;5044771;28;20125;-77
2023/10/05 11:16:16;;;;;;;8.75;3.92;;;16.50;99.90;;;;;;5041109;28;20041;-77
2023/10/05 11:18:57;;;;;;;8.10;3.35;;;16.50;99.90;;;;;;5041605;28;20128;-76
2023/10/05 11:21:26;;;;;;;7.70;3.45;;;16.50;99.90;;;;;;5046408;28;20442;-77
2023/10/05 11:23:57;;;;;;;10.30;3.78;;;16.50;99.90;;;;;;5048543;28;20049;-76
2023/10/05 11:26:33;;;;;;;10.00;3.42;;;16.50;99.90;;;;;;5040258;28;20492;-76
2023/10/05 11:29:20;;;;;;;7.55;2.78;;;16.50;99.90;;;;;;5047755;28;20436;-76
2023/10/05 11:31:51;;;;;;;7.18;3.13;;;16.40;99.90;;;;;;5039720;28;20056;-76
2023/10/05 11:34:42;;;;;;;5.22;2.22;;;16.40;99.90;;;;;;5049319;28;20049;-76
2023/10/05 11:37:30;;;;;;;7.28;2.42;;;16.40;99.90;;;;;;5047314;28;20559;-76
2023/10/05 11:40:00;;;;;;;6.75;2.63;;;16.30;99.90;;;;;;5044931;28;20080;-76
2023/10/05 11:42:33;;;;;;;8.60;2.97;;;16.30;99.90;;;;;;5046756;28;20045;-76
2023/10/05 11:45:04;;;;;;;8.55;3.15;;;16.30;99.90;;;;;;5044450;28;20483;-76
2023/10/05 11:47:41;;;;;;;6.30;2.47;;;16.40;99.90;;;;;;5049156;28;20040;-77
2023/10/05 11:50:24;;;;;;;10.25;2.50;;;16.40;99.90;;;;;;5050283;28;20091;-76
2023/10/05 11:52:52;;;;;;;7.97;2.90;;;16.40;99.90;;;;;;5048221;28;20133;-76
2023/10/05 11:55:20;;;;;;;6.53;2.45;;;16.40;99.90;;;;;;5043198;28;20044;-76
2023/10/05 11:57:47;;;;;;;6.13;2.88;;;16.50;99.90;;;;;;5043417;28;20049;-77
2023/10/05 12:00:16;;;;;;;5.90;2.65;;;16.40;99.90;;;;;;5045440;28;20106;-77
2023/10/05 12:02:44;;;;;;;5.37;2.60;;;16.50;99.90;;;;;;5051284;28;20049;-77
2023/10/05 12:05:11;;;;;;;6.00;2.50;;;16.50;99.90;;;;;;5049373;28;20136;-76
2023/10/05 12:07:45;;;;;;;6.45;2.63;;;16.50;99.90;;;;;;5032529;28;20053;-77
2023/10/05 12:10:13;;;;;;;5.88;2.53;;;16.50;99.90;;;;;;5042732;28;20049;-76
2023/10/05 12:12:48;;;;;;;5.93;2.30;;;16.60;99.90;;;;;;5041194;28;20045;-77
2023/10/05 12:15:17;;;;;;;7.75;3.13;;;16.60;99.90;;;;;;5044187;28;20275;-76
2023/10/05 12:17:45;;;;;;;6.70;2.90;;;16.60;99.90;;;;;;5049577;28;20045;-76
2023/10/05 12:20:15;;;;;;;9.13;3.20;;;16.70;99.90;;;;;;5047312;28;20077;-77
2023/10/05 12:22:44;;;;;;;10.85;2.83;;;16.70;99.90;;;;;;5044792;28;20060;-77
2023/10/05 12:25:14;;;;;;;11.30;3.22;;;16.70;99.90;;;;;;5041429;28;20059;-76
2023/10/05 12:27:42;;;;;;;4.40;2.20;;;16.70;99.90;;;;;;5040072;28;20414;-76
2023/10/05 12:30:12;;;;;;;5.25;2.63;;;16.70;99.90;;;;;;5047169;28;20540;-76
2023/10/05 12:32:39;;;;;;;8.63;2.72;;;16.80;99.90;;;;;;5049732;28;20045;-77
2023/10/05 12:35:13;;;;;;;5.57;2.47;;;16.90;99.90;;;;;;5045237;28;20053;-76
2023/10/05 12:37:41;;;;;;;4.35;2.33;;;16.90;99.90;;;;;;5043446;28;20045;-76
2023/10/05 12:40:18;;;;;;;10.45;3.25;;;16.90;99.90;;;;;;5023453;28;20402;-77
2023/10/05 12:42:51;;;;;;;4.20;2.00;;;16.90;99.90;;;;;;5046414;28;20081;-77
2023/10/05 12:45:28;;;;;;;7.75;2.20;;;17.00;99.90;;;;;;5050135;28;20049;-76
2023/10/05 12:47:55;;;;;;;5.97;2.78;;;17.20;99.90;;;;;;5045262;28;20468;-77
2023/10/05 12:50:25;;;;;;;7.63;3.33;;;17.20;99.90;;;;;;5040118;28;20044;-76
2023/10/05 12:52:52;;;;;;;7.90;2.63;;;17.30;99.90;;;;;;5045787;28;20084;-77
2023/10/05 12:55:23;;;;;;;5.88;2.20;;;17.50;99.90;;;;;;5033383;28;20098;-76
2023/10/05 12:57:52;;;;;;;4.45;2.30;;;17.60;99.90;;;;;;5046706;28;20049;-75
2023/10/05 13:00:21;;;;;;;8.50;2.33;;;17.70;99.90;;;;;;5049981;28;20052;-77
2023/10/05 13:02:52;;;;;;;8.00;2.10;;;17.80;99.90;;;;;;5047121;28;20406;-77
2023/10/05 13:05:21;;;;;;;6.28;2.42;;;17.80;99.90;;;;;;5042994;28;20052;-77
2023/10/05 13:08:01;;;;;;;4.53;2.30;;;18.00;99.90;;;;;;5045856;28;20049;-77
2023/10/05 13:10:32;;;;;;;6.63;2.50;;;18.00;99.90;;;;;;5036519;28;20591;-77
2023/10/05 13:13:09;;;;;;;6.72;2.50;;;18.20;99.90;;;;;;5046762;28;20057;-76
2023/10/05 13:15:37;;;;;;;4.18;2.47;;;18.30;99.90;;;;;;5046181;28;20459;-77
2023/10/05 13:18:19;;;;;;;6.03;3.25;;;18.40;99.90;;;;;;5046022;28;20045;-77
2023/10/05 13:20:54;;;;;;;6.70;2.53;;;18.40;99.90;;;;;;5039782;28;20053;-77
2023/10/05 13:23:21;;;;;;;4.95;2.35;;;18.50;99.90;;;;;;5045798;28;20462;-77
2023/10/05 13:25:50;;;;;;;6.35;1.88;;;18.60;99.90;;;;;;5035235;28;20092;-77
2023/10/05 13:28:26;;;;;;;5.90;2.58;;;18.60;99.90;;;;;;5050901;28;20045;-76